createdAt,value
2023-04-28T00:01:41.953Z,98109.22
2023-04-28T00:04:09.316Z,98109.66
2023-04-28T00:06:37.284Z,98117.97
2023-04-28T00:09:04.043Z,98114.66
2023-04-28T00:11:30.802Z,98108.63
2023-04-28T00:13:57.659Z,98097.81
2023-04-28T00:16:24.567Z,98106.44
2023-04-28T00:18:51.544Z,98103.25
2023-04-28T00:21:18.232Z,98088.78
2023-04-28T00:23:45.011Z,98096.91
2023-04-28T00:26:12.589Z,98101.03
2023-04-28T00:28:41.539Z,98100.69
2023-04-28T00:31:16.332Z,98102.63
2023-04-28T00:33:43.984Z,98101.78
2023-04-28T00:36:11.268Z,98086.47
2023-04-28T00:38:38.132Z,98073.41
2023-04-28T00:41:05.019Z,98081.53
2023-04-28T00:43:31.772Z,98089.88
2023-04-28T00:45:58.547Z,98097.31
2023-04-28T00:48:25.622Z,98091.34
2023-04-28T00:50:52.406Z,98082.72
2023-04-28T00:53:19.174Z,98076.97
2023-04-28T00:55:46.663Z,98083.47
2023-04-28T00:58:13.348Z,98076.19
2023-04-28T01:00:40.777Z,98076.56
2023-04-28T01:03:08.232Z,98069.97
2023-04-28T01:05:35.187Z,98058.69
2023-04-28T01:08:02.020Z,98068.78
2023-04-28T01:10:28.813Z,98068.59
2023-04-28T01:12:57.576Z,98068.59
2023-04-28T01:15:24.548Z,98066.75
2023-04-28T01:17:53.942Z,98067.31
2023-04-28T01:20:20.859Z,98063.50
2023-04-28T01:22:47.656Z,98057.03
2023-04-28T01:25:14.942Z,98052.50
2023-04-28T01:27:41.613Z,98050.00
2023-04-28T01:30:11.710Z,98051.91
2023-04-28T01:32:39.050Z,98047.97
2023-04-28T01:35:06.015Z,98040.53
2023-04-28T01:37:34.956Z,98037.41
2023-04-28T01:40:01.681Z,98032.38
2023-04-28T01:42:28.411Z,98027.91
2023-04-28T01:44:55.132Z,98034.25
2023-04-28T01:47:21.890Z,98038.97
2023-04-28T01:49:50.217Z,98032.13
2023-04-28T01:52:16.960Z,98031.31
2023-04-28T01:54:43.839Z,98039.91
2023-04-28T01:57:10.578Z,98039.91
2023-04-28T01:59:37.564Z,98024.31
2023-04-28T02:02:06.064Z,98027.16
2023-04-28T02:04:33.685Z,98027.47
2023-04-28T02:07:00.411Z,98030.88
2023-04-28T02:09:27.144Z,98024.09
2023-04-28T02:11:53.869Z,98018.13
2023-04-28T02:14:21.316Z,98012.28
2023-04-28T02:16:48.045Z,98014.28
2023-04-28T02:19:15.815Z,98017.31
2023-04-28T02:21:43.179Z,98015.84
2023-04-28T02:24:09.878Z,98012.72
2023-04-28T02:26:36.652Z,98016.56
2023-04-28T02:29:06.328Z,98013.63
2023-04-28T02:31:33.352Z,98007.50
2023-04-28T02:34:00.201Z,98005.19
2023-04-28T02:36:27.979Z,98008.47
2023-04-28T02:38:54.844Z,98003.38
2023-04-28T02:41:21.648Z,97989.72
2023-04-28T02:43:48.397Z,97999.31
2023-04-28T02:46:15.245Z,98010.44
2023-04-28T02:48:42.250Z,98003.66
2023-04-28T02:51:10.525Z,97999.81
2023-04-28T02:53:39.777Z,97998.63
2023-04-28T02:56:07.228Z,98001.91
2023-04-28T02:58:34.014Z,98002.38
2023-04-28T03:01:01.382Z,98002.38
2023-04-28T03:03:28.374Z,98007.69
2023-04-28T03:05:57.142Z,98011.63
2023-04-28T03:08:24.096Z,98022.81
2023-04-28T03:10:50.967Z,98026.00
2023-04-28T03:13:17.756Z,98022.03
2023-04-28T03:15:44.672Z,98032.03
2023-04-28T03:18:11.868Z,98026.63
2023-04-28T03:20:38.887Z,98022.19
2023-04-28T03:23:05.597Z,98019.97
2023-04-28T03:25:32.597Z,98012.69
2023-04-28T03:27:59.319Z,98010.59
2023-04-28T03:30:26.100Z,98000.16
2023-04-28T03:32:52.878Z,97992.19
2023-04-28T03:35:19.848Z,97975.44
2023-04-28T03:37:46.860Z,97982.75
2023-04-28T03:40:13.750Z,97964.38
2023-04-28T03:43:12.745Z,97985.31
2023-04-28T03:45:46.040Z,97993.06
2023-04-28T03:48:12.808Z,97985.94
2023-04-28T03:50:41.161Z,97986.47
2023-04-28T03:53:08.510Z,97985.63
2023-04-28T03:55:35.376Z,97987.31
2023-04-28T03:58:02.629Z,97975.31
2023-04-28T04:00:29.438Z,97969.69
2023-04-28T04:02:57.191Z,97971.31
2023-04-28T04:05:24.308Z,97968.22
2023-04-28T04:07:51.148Z,97970.56
2023-04-28T04:10:17.969Z,97969.91
2023-04-28T04:12:45.385Z,97974.28
2023-04-28T04:15:12.371Z,97974.09
2023-04-28T04:17:40.229Z,97968.59
2023-04-28T04:20:07.834Z,97962.00
2023-04-28T04:22:34.510Z,97962.00
2023-04-28T04:25:01.568Z,97965.63
2023-04-28T04:27:28.464Z,97962.78
2023-04-28T04:29:55.585Z,97962.78
2023-04-28T04:32:22.328Z,97965.41
2023-04-28T04:34:49.784Z,97966.44
2023-04-28T04:37:16.838Z,97969.09
2023-04-28T04:39:50.727Z,97973.38
2023-04-28T04:45:00.346Z,97973.38
2023-04-28T04:47:29.675Z,97974.03
2023-04-28T04:49:56.804Z,97973.69
2023-04-28T04:52:23.914Z,97966.97
2023-04-28T04:54:51.402Z,97965.50
2023-04-28T04:57:18.483Z,97974.09
2023-04-28T05:00:05.163Z,97968.78
2023-04-28T05:02:32.140Z,97976.75
2023-04-28T05:05:12.101Z,97964.47
2023-04-28T05:07:49.282Z,97955.53
2023-04-28T05:10:16.207Z,97958.00
2023-04-28T05:12:46.209Z,97949.69
2023-04-28T05:15:16.911Z,97943.84
2023-04-28T05:17:53.353Z,97956.75
2023-04-28T05:20:20.788Z,97958.22
2023-04-28T05:22:47.525Z,97959.69
2023-04-28T05:25:14.435Z,97966.31
2023-04-28T05:27:41.246Z,97968.50
2023-04-28T05:30:10.703Z,97961.66
2023-04-28T05:32:38.177Z,97968.59
2023-04-28T05:35:05.462Z,97954.06
2023-04-28T05:37:32.386Z,97952.56
2023-04-28T05:39:59.136Z,97959.06
2023-04-28T05:42:25.831Z,97958.22
2023-04-28T05:44:52.488Z,97968.13
2023-04-28T05:47:19.159Z,97966.75
2023-04-28T05:49:46.038Z,97962.22
2023-04-28T05:52:12.731Z,97966.97
2023-04-28T05:54:39.434Z,97972.13
2023-04-28T05:57:06.229Z,97970.41
2023-04-28T05:59:33.314Z,97967.38
2023-04-28T06:02:00.724Z,97973.16
2023-04-28T06:04:28.251Z,97966.84
2023-04-28T06:06:55.348Z,97961.34
2023-04-28T06:09:22.521Z,97971.97
2023-04-28T06:11:49.216Z,97964.53
2023-04-28T06:14:16.713Z,97963.34
2023-04-28T06:16:43.692Z,97954.75
2023-04-28T06:19:10.544Z,97957.22
2023-04-28T06:21:37.504Z,97965.00
2023-04-28T06:24:04.255Z,97966.47
2023-04-28T06:26:31.194Z,97961.34
2023-04-28T06:28:57.896Z,97958.59
2023-04-28T06:31:24.653Z,97956.22
2023-04-28T06:33:53.569Z,97958.50
2023-04-28T06:36:22.704Z,97959.00
2023-04-28T06:38:49.450Z,97951.03
2023-04-28T06:41:16.666Z,97953.31
2023-04-28T06:43:46.979Z,97944.53
2023-04-28T06:46:29.293Z,97940.84
2023-04-28T06:48:56.660Z,97944.16
2023-04-28T06:51:23.636Z,97943.94
2023-04-28T06:53:53.429Z,97946.44
2023-04-28T06:56:20.608Z,97937.81
2023-04-28T06:58:48.449Z,97943.94
2023-04-28T07:01:15.284Z,97932.50
2023-04-28T07:03:42.201Z,97932.22
2023-04-28T07:06:09.071Z,97928.84
2023-04-28T07:08:37.097Z,97934.00
2023-04-28T07:11:04.933Z,97934.47
2023-04-28T07:13:32.524Z,97925.50
2023-04-28T07:15:59.435Z,97928.59
2023-04-28T07:18:26.181Z,97930.44
2023-04-28T07:20:52.980Z,97918.81
2023-04-28T07:23:19.742Z,97927.03
2023-04-28T07:25:46.838Z,97920.72
2023-04-28T07:28:14.322Z,97930.97
2023-04-28T07:30:41.247Z,97916.94
2023-04-28T07:33:08.001Z,97918.59
2023-04-28T07:35:35.153Z,97919.97
2023-04-28T07:38:02.603Z,97921.69
2023-04-28T07:40:29.348Z,97913.34
2023-04-28T07:42:56.111Z,97911.59
2023-04-28T07:45:22.965Z,97908.84
2023-04-28T07:47:49.742Z,97906.38
2023-04-28T07:50:17.434Z,97916.53
2023-04-28T07:52:44.751Z,97916.81
2023-04-28T07:55:11.587Z,97920.44
2023-04-28T07:57:38.277Z,97925.84
2023-04-28T08:00:05.719Z,97929.31
2023-04-28T08:02:38.765Z,97937.31
2023-04-28T08:05:07.668Z,97947.94
2023-04-28T08:07:34.686Z,97954.31
2023-04-28T08:10:01.597Z,97943.94
2023-04-28T08:12:28.516Z,97937.00
2023-04-28T08:14:55.564Z,97952.94
2023-04-28T08:17:22.279Z,97956.91
2023-04-28T08:19:49.058Z,97970.81
2023-04-28T08:22:16.024Z,97979.03
2023-04-28T08:24:42.783Z,97974.38
2023-04-28T08:27:09.511Z,97967.84
2023-04-28T08:29:36.255Z,97976.53
2023-04-28T08:32:03.029Z,97981.97
2023-04-28T08:34:29.783Z,97966.44
2023-04-28T08:36:56.509Z,97960.19
2023-04-28T08:39:23.883Z,97966.78
2023-04-28T08:41:50.917Z,97960.94
2023-04-28T08:44:18.710Z,97965.06
2023-04-28T08:46:47.049Z,97965.13
2023-04-28T08:49:18.404Z,97962.53
2023-04-28T08:51:50.700Z,97972.03
2023-04-28T08:54:26.021Z,97979.84
2023-04-28T08:56:53.138Z,97980.59
2023-04-28T08:59:20.063Z,97991.38
2023-04-28T09:01:49.759Z,97995.13
2023-04-28T09:04:18.055Z,97990.78
2023-04-28T09:06:46.600Z,97994.75
2023-04-28T09:09:20.332Z,97978.94
2023-04-28T09:12:03.264Z,97997.44
2023-04-28T09:14:33.103Z,97995.66
2023-04-28T09:16:59.877Z,97983.56
2023-04-28T09:19:37.687Z,97986.38
2023-04-28T09:22:21.858Z,97993.38
2023-04-28T09:24:53.347Z,98001.63
2023-04-28T09:27:26.981Z,97995.53
2023-04-28T09:29:54.659Z,97997.94
2023-04-28T09:32:23.270Z,98001.03
2023-04-28T09:34:56.940Z,97991.19
2023-04-28T09:37:25.933Z,98000.88
2023-04-28T09:39:54.483Z,97998.03
2023-04-28T09:42:38.255Z,97996.19
2023-04-28T09:45:06.956Z,97996.13
2023-04-28T09:47:36.056Z,97984.81
2023-04-28T09:50:09.517Z,97984.25
2023-04-28T09:52:36.878Z,97995.16
2023-04-28T09:55:05.846Z,97992.25
2023-04-28T09:57:35.183Z,97988.56
2023-04-28T10:00:06.029Z,97979.59
2023-04-28T10:02:42.658Z,97980.41
2023-04-28T10:05:11.112Z,97990.34
2023-04-28T10:07:39.362Z,97979.25
2023-04-28T10:10:07.801Z,97978.03
2023-04-28T10:12:35.317Z,97980.63
2023-04-28T10:15:02.242Z,97981.56
2023-04-28T10:17:29.905Z,97973.63
2023-04-28T10:19:57.828Z,97975.91
2023-04-28T10:22:52.304Z,97974.31
2023-04-28T10:25:30.680Z,97974.09
2023-04-28T10:27:58.080Z,97976.56
2023-04-28T10:30:28.825Z,97971.88
2023-04-28T10:33:14.322Z,97965.13
2023-04-28T10:35:45.292Z,97969.63
2023-04-28T10:38:14.400Z,97963.94
2023-04-28T10:40:42.723Z,97963.16
2023-04-28T10:43:10.481Z,97972.41
2023-04-28T10:45:50.354Z,97965.59
2023-04-28T10:48:17.336Z,97970.13
2023-04-28T10:51:13.291Z,97969.09
2023-04-28T10:53:43.787Z,97980.84
2023-04-28T10:56:21.640Z,97974.25
2023-04-28T10:58:51.813Z,97980.22
2023-04-28T11:01:25.001Z,97978.16
2023-04-28T11:04:14.139Z,97979.16
2023-04-28T11:06:42.767Z,97986.16
2023-04-28T11:09:12.427Z,97985.53
2023-04-28T11:11:40.252Z,97975.69
2023-04-28T11:14:19.161Z,97976.31
2023-04-28T11:16:55.646Z,97977.94
2023-04-28T11:19:42.843Z,97973.59
2023-04-28T11:22:24.099Z,97981.03
2023-04-28T11:25:00.936Z,97971.97
2023-04-28T11:27:29.167Z,97977.75
2023-04-28T11:29:56.117Z,97982.06
2023-04-28T11:32:30.808Z,97980.44
2023-04-28T11:34:57.628Z,97982.91
2023-04-28T11:37:24.360Z,97979.41
2023-04-28T11:39:52.188Z,97976.94
2023-04-28T11:42:19.419Z,97968.47
2023-04-28T11:44:53.202Z,97980.84
2023-04-28T11:47:35.405Z,97970.38
2023-04-28T11:50:03.427Z,97976.13
2023-04-28T11:52:30.268Z,97970.56
2023-04-28T11:54:59.383Z,97967.88
2023-04-28T11:57:26.931Z,97965.63
2023-04-28T11:59:53.990Z,97966.84
2023-04-28T12:02:30.975Z,97970.38
2023-04-28T12:05:22.594Z,97970.56
2023-04-28T12:07:49.478Z,97967.47
2023-04-28T12:10:17.412Z,97963.16
2023-04-28T12:12:51.627Z,97969.91
2023-04-28T12:15:21.942Z,97974.03
2023-04-28T12:17:51.154Z,97969.69
2023-04-28T12:20:36.680Z,97966.19
2023-04-28T12:23:03.466Z,97964.94
2023-04-28T12:25:34.218Z,97970.06
2023-04-28T12:28:04.300Z,97972.75
2023-04-28T12:30:35.360Z,97975.19
2023-04-28T12:33:02.175Z,97982.59
2023-04-28T12:35:29.667Z,97988.69
2023-04-28T12:37:58.783Z,97991.59
2023-04-28T12:40:26.242Z,97981.53
2023-04-28T12:42:53.336Z,97995.06
2023-04-28T12:45:20.198Z,97989.63
2023-04-28T12:47:48.416Z,98004.78
2023-04-28T12:50:15.241Z,98017.69
2023-04-28T12:52:41.982Z,98000.50
2023-04-28T12:55:09.108Z,97997.53
2023-04-28T12:57:39.015Z,97985.91
2023-04-28T13:00:07.843Z,97998.81
2023-04-28T13:02:35.320Z,97981.19
2023-04-28T13:05:03.063Z,97974.53
2023-04-28T13:07:30.695Z,97960.06
2023-04-28T13:09:57.573Z,97956.47
2023-04-28T13:12:24.350Z,97951.19
2023-04-28T13:14:51.194Z,97950.59
2023-04-28T13:17:18.012Z,97945.88
2023-04-28T13:19:45.108Z,97939.69
2023-04-28T13:22:12.664Z,97943.81
2023-04-28T13:24:39.512Z,97938.06
2023-04-28T13:27:10.265Z,97952.63
2023-04-28T13:29:37.518Z,97943.59
2023-04-28T13:32:06.015Z,97940.31
2023-04-28T13:34:33.335Z,97943.81
2023-04-28T13:37:00.131Z,97943.00
2023-04-28T13:39:26.848Z,97934.78
2023-04-28T13:41:53.577Z,97938.50
2023-04-28T13:44:20.352Z,97936.88
2023-04-28T13:46:47.401Z,97936.03
2023-04-28T13:49:14.165Z,97940.97
2023-04-28T13:51:41.356Z,97936.47
2023-04-28T13:54:09.048Z,97944.84
2023-04-28T13:56:36.762Z,97942.59
2023-04-28T13:59:04.094Z,97936.69
2023-04-28T14:01:31.032Z,97933.78
2023-04-28T14:03:58.201Z,97925.75
2023-04-28T14:06:25.094Z,97931.06
2023-04-28T14:08:52.075Z,97920.41
2023-04-28T14:11:18.756Z,97918.97
2023-04-28T14:13:45.665Z,97906.03
2023-04-28T14:16:12.466Z,97892.25
2023-04-28T14:18:39.751Z,97905.00
2023-04-28T14:21:08.601Z,97908.88
2023-04-28T14:23:36.088Z,97925.31
2023-04-28T14:26:03.276Z,97921.44
2023-04-28T14:28:30.137Z,97913.41
2023-04-28T14:30:57.318Z,97898.63
2023-04-28T14:33:24.857Z,97895.53
2023-04-28T14:35:52.161Z,97894.91
2023-04-28T14:38:18.985Z,97907.44
2023-04-28T14:40:45.983Z,97887.50
2023-04-28T14:43:14.160Z,97895.53
2023-04-28T14:45:41.045Z,97890.81
2023-04-28T14:48:08.100Z,97899.44
2023-04-28T14:50:35.200Z,97894.09
2023-04-28T14:53:05.713Z,97881.38
2023-04-28T14:55:33.519Z,97894.09
2023-04-28T14:58:00.286Z,97895.72
2023-04-28T15:00:27.017Z,97898.41
2023-04-28T15:02:54.368Z,97901.47
2023-04-28T15:05:21.300Z,97904.34
2023-04-28T15:07:48.050Z,97908.44
2023-04-28T15:10:15.413Z,97910.72
2023-04-28T15:12:42.769Z,97903.75
2023-04-28T15:15:09.926Z,97900.03
2023-04-28T15:17:36.658Z,97896.97
2023-04-28T15:20:04.841Z,97910.75
2023-04-28T15:22:31.702Z,97910.53
2023-04-28T15:24:58.456Z,97896.34
2023-04-28T15:27:25.189Z,97891.84
2023-04-28T15:29:51.874Z,97895.53
2023-04-28T15:32:19.225Z,97884.06
2023-04-28T15:34:46.319Z,97886.28
2023-04-28T15:37:38.114Z,97892.88
2023-04-28T15:40:09.392Z,97880.97
2023-04-28T15:42:36.350Z,97878.47
2023-04-28T15:45:03.635Z,97874.78
2023-04-28T15:47:31.186Z,97880.34
2023-04-28T15:49:59.332Z,97886.91
2023-04-28T15:52:27.273Z,97878.47
2023-04-28T15:54:56.025Z,97872.97
2023-04-28T15:57:23.024Z,97873.97
2023-04-28T15:59:51.797Z,97866.97
2023-04-28T16:02:18.950Z,97874.38
2023-04-28T16:04:47.108Z,97860.81
2023-04-28T16:07:14.197Z,97862.03
2023-04-28T16:09:40.980Z,97856.50
2023-04-28T16:12:07.679Z,97853.22
2023-04-28T16:14:35.106Z,97853.84
2023-04-28T16:17:01.889Z,97847.66
2023-04-28T16:19:28.676Z,97851.34
2023-04-28T16:21:55.356Z,97858.13
2023-04-28T16:24:22.739Z,97862.25
2023-04-28T16:26:51.116Z,97857.34
2023-04-28T16:29:17.990Z,97861.22
2023-04-28T16:31:45.229Z,97850.97
2023-04-28T16:34:12.500Z,97857.56
2023-04-28T16:36:40.310Z,97844.78
2023-04-28T16:39:07.213Z,97865.34
2023-04-28T16:41:33.919Z,97861.22
2023-04-28T16:44:00.601Z,97860.22
2023-04-28T16:46:27.415Z,97856.69
2023-04-28T16:48:54.168Z,97866.13
2023-04-28T16:51:22.213Z,97875.00
2023-04-28T16:53:48.946Z,97882.59
2023-04-28T16:56:15.674Z,97880.34
2023-04-28T16:58:42.588Z,97886.28
2023-04-28T17:01:09.583Z,97883.44
2023-04-28T17:03:41.757Z,97883.19
2023-04-28T17:06:09.207Z,97892.84
2023-04-28T17:08:36.051Z,97884.84
2023-04-28T17:11:04.426Z,97874.59
2023-04-28T17:13:34.227Z,97873.16
2023-04-28T17:16:01.421Z,97871.28
2023-04-28T17:18:28.453Z,97873.56
2023-04-28T17:20:56.129Z,97869.47
2023-04-28T17:23:22.910Z,97864.94
2023-04-28T17:25:49.640Z,97872.72
2023-04-28T17:28:16.424Z,97872.13
2023-04-28T17:30:47.122Z,97872.53
2023-04-28T17:33:14.457Z,97875.63
2023-04-28T17:35:41.158Z,97876.06
2023-04-28T17:38:07.851Z,97870.06
2023-04-28T17:40:34.769Z,97873.56
2023-04-28T17:43:01.804Z,97871.09
2023-04-28T17:45:28.664Z,97865.34
2023-04-28T17:47:57.889Z,97877.47
2023-04-28T17:50:25.971Z,97866.16
2023-04-28T17:52:52.888Z,97869.25
2023-04-28T17:55:19.637Z,97876.03
2023-04-28T17:57:46.436Z,97867.19
2023-04-28T18:00:13.801Z,97870.06
2023-04-28T18:02:40.987Z,97875.84
2023-04-28T18:05:08.201Z,97876.44
2023-04-28T18:07:34.989Z,97879.72
2023-04-28T18:10:01.827Z,97866.16
2023-04-28T18:12:28.584Z,97880.94
2023-04-28T18:14:55.492Z,97875.19
2023-04-28T18:17:23.395Z,97882.56
2023-04-28T18:19:52.404Z,97882.94
2023-04-28T18:22:19.183Z,97881.72
2023-04-28T18:24:46.210Z,97888.88
2023-04-28T18:27:12.968Z,97892.13
2023-04-28T18:29:39.690Z,97889.63
2023-04-28T18:32:06.946Z,97895.53
2023-04-28T18:34:33.791Z,97900.88
2023-04-28T18:37:00.616Z,97911.31
2023-04-28T18:39:27.668Z,97909.44
2023-04-28T18:41:54.385Z,97899.16
2023-04-28T18:44:21.716Z,97902.44
2023-04-28T18:46:48.452Z,97904.66
2023-04-28T18:49:15.329Z,97914.31
2023-04-28T18:51:42.267Z,97908.75
2023-04-28T18:54:09.045Z,97913.84
2023-04-28T18:56:36.569Z,97919.34
2023-04-28T18:59:04.575Z,97919.75
2023-04-28T19:01:31.712Z,97921.19
2023-04-28T19:03:58.658Z,97919.91
2023-04-28T19:06:25.796Z,97931.78
2023-04-28T19:08:52.486Z,97925.00
2023-04-28T19:11:19.178Z,97923.97
2023-04-28T19:13:45.907Z,97930.16
2023-04-28T19:16:13.345Z,97929.13
2023-04-28T19:18:42.132Z,97933.41
2023-04-28T19:21:11.829Z,97938.56
2023-04-28T19:23:41.948Z,97943.66
2023-04-28T19:26:09.449Z,97939.69
2023-04-28T19:28:36.213Z,97944.44
2023-04-28T19:31:03.128Z,97944.44
2023-04-28T19:33:29.926Z,97941.97
2023-04-28T19:35:56.892Z,97951.59
2023-04-28T19:38:24.202Z,97954.25
2023-04-28T19:40:52.278Z,97951.97
2023-04-28T19:43:19.301Z,97966.72
2023-04-28T19:45:46.844Z,97969.78
2023-04-28T19:48:14.682Z,97976.47
2023-04-28T19:50:42.373Z,97969.28
2023-04-28T19:53:09.624Z,97970.28
2023-04-28T19:55:37.089Z,97960.66
2023-04-28T19:58:04.274Z,97964.53
2023-04-28T20:00:32.409Z,97963.06
2023-04-28T20:03:00.326Z,97960.16
2023-04-28T20:05:27.570Z,97960.34
2023-04-28T20:07:56.239Z,97966.50
2023-04-28T20:10:23.930Z,97965.47
2023-04-28T20:12:50.779Z,97964.44
2023-04-28T20:15:18.659Z,97969.16
2023-04-28T20:17:46.115Z,97974.84
2023-04-28T20:20:13.140Z,97973.22
2023-04-28T20:22:41.211Z,97973.03
2023-04-28T20:25:10.604Z,97974.03
2023-04-28T20:27:37.588Z,97978.53
2023-04-28T20:30:05.112Z,97974.97
2023-04-28T20:32:31.959Z,97971.84
2023-04-28T20:34:58.768Z,97971.44
2023-04-28T20:37:26.621Z,97964.19
2023-04-28T20:39:53.619Z,97973.84
2023-04-28T20:42:20.337Z,97965.22
2023-04-28T20:44:47.123Z,97963.94
2023-04-28T20:47:14.303Z,97957.34
2023-04-28T20:49:41.194Z,97956.53
2023-04-28T20:52:08.423Z,97953.63
2023-04-28T20:54:36.310Z,97960.78
2023-04-28T20:57:06.871Z,97957.91
2023-04-28T20:59:33.685Z,97953.22
2023-04-28T21:02:00.637Z,97962.03
2023-04-28T21:04:28.516Z,97966.97
2023-04-28T21:06:55.790Z,97973.75
2023-04-28T21:09:25.360Z,97975.84
2023-04-28T21:11:52.393Z,97975.47
2023-04-28T21:14:19.215Z,97973.44
2023-04-28T21:16:46.041Z,97974.25
2023-04-28T21:19:12.965Z,97977.09
2023-04-28T21:21:39.920Z,97979.03
2023-04-28T21:24:08.152Z,97981.69
2023-04-28T21:26:36.015Z,97975.38
2023-04-28T21:29:03.025Z,97976.00
2023-04-28T21:31:30.783Z,97977.66
2023-04-28T21:33:57.809Z,97967.84
2023-04-28T21:36:24.693Z,97969.06
2023-04-28T21:38:51.626Z,97976.66
2023-04-28T21:41:18.348Z,97969.66
2023-04-28T21:43:45.004Z,97983.19
2023-04-28T21:46:13.288Z,97974.69
2023-04-28T21:48:40.101Z,97974.69
2023-04-28T21:51:06.794Z,97978.38
2023-04-28T21:53:33.620Z,97975.28
2023-04-28T21:56:00.368Z,97985.84
2023-04-28T21:58:27.281Z,97974.56
2023-04-28T22:00:55.259Z,97973.31
2023-04-28T22:03:22.297Z,97978.75
2023-04-28T22:05:49.235Z,97979.50
2023-04-28T22:08:17.275Z,97976.84
2023-04-28T22:10:45.757Z,97982.38
2023-04-28T22:13:16.080Z,97979.06
2023-04-28T22:15:43.237Z,97974.38
2023-04-28T22:18:10.105Z,97981.34
2023-04-28T22:20:36.951Z,97974.56
2023-04-28T22:23:03.706Z,97975.59
2023-04-28T22:25:30.393Z,97973.31
2023-04-28T22:27:57.323Z,97980.56
2023-04-28T22:30:25.965Z,97980.28
2023-04-28T22:32:53.321Z,97988.09
2023-04-28T22:35:20.126Z,97985.81
2023-04-28T22:37:47.055Z,97981.41
2023-04-28T22:40:13.926Z,97974.63
2023-04-28T22:42:41.912Z,97973.63
2023-04-28T22:45:10.522Z,97970.97
2023-04-28T22:47:38.752Z,97966.84
2023-04-28T22:50:06.684Z,97970.53
2023-04-28T22:52:34.294Z,97974.38
2023-04-28T22:55:01.363Z,97962.09
2023-04-28T22:57:28.273Z,97970.91
2023-04-28T22:59:55.046Z,97977.03
2023-04-28T23:02:23.234Z,97968.41
2023-04-28T23:04:50.541Z,97973.72
2023-04-28T23:07:17.525Z,97973.72
2023-04-28T23:09:44.237Z,97979.41
2023-04-28T23:12:10.979Z,97975.31
2023-04-28T23:14:38.314Z,97977.78
2023-04-28T23:17:05.247Z,97976.75
2023-04-28T23:19:31.970Z,97974.91
2023-04-28T23:21:58.679Z,97970.63
2023-04-28T23:24:26.775Z,97964.66
2023-04-28T23:26:53.509Z,97974.66
2023-04-28T23:29:20.300Z,97973.84
2023-04-28T23:31:52.595Z,97973.84
2023-04-28T23:34:19.539Z,97974.03
2023-04-28T23:36:46.344Z,97969.06
2023-04-28T23:39:13.191Z,97971.09
2023-04-28T23:41:39.924Z,97962.94
2023-04-28T23:44:06.640Z,97966.78
2023-04-28T23:46:33.694Z,97963.31
2023-04-28T23:49:00.376Z,97963.47
2023-04-28T23:51:27.080Z,97960.00
2023-04-28T23:53:53.854Z,97959.19
2023-04-28T23:56:20.614Z,97956.09
2023-04-28T23:58:47.388Z,97958.53
